Time;durP1;ratioP1;P1;durP2;ratioP2;P2;SDS_P1;SDS_P2;PMS_P1;PMS_P2;Temp;Humidity;BMP_temperature;BMP_pressure;BME280_temperature;BME280_humidity;BME280_pressure;Samples;Min_cycle;Max_cycle;Signal;HPM_P1;HPM_P2
2022/08/06 00:02:14;;;;;;;;;;;;;;;21.79;29.15;97615.56;5073700;28;977;-78
2022/08/06 00:04:39;;;;;;;;;;;;;;;21.93;28.74;97611.47;5058817;28;983;-78
2022/08/06 00:07:04;;;;;;;;;;;;;;;21.98;28.78;97613.72;5056051;28;1143;-78
2022/08/06 00:09:30;;;;;;;;;;;;;;;21.93;28.79;97608.63;5056307;28;854;-78
2022/08/06 00:12:04;;;;;;;;;;;;;;;21.95;28.60;97604.06;5033480;28;1979;-78
2022/08/06 00:14:30;;;;;;;;;;;;;;;21.83;28.81;97602.88;5017457;28;998;-78
2022/08/06 00:16:55;;;;;;;;;;;;;;;21.92;28.74;97605.00;5016780;28;1712;-78
2022/08/06 00:19:21;;;;;;;;;;;;;;;21.63;29.19;97608.00;5013555;28;975;-78
2022/08/06 00:21:46;;;;;;;;;;;;;;;21.64;29.04;97601.06;5014008;28;1002;-78
2022/08/06 00:24:12;;;;;;;;;;;;;;;21.79;28.87;97602.19;5013702;28;938;-78
2022/08/06 00:26:38;;;;;;;;;;;;;;;21.77;28.84;97603.91;4981221;28;1001;-77
2022/08/06 00:29:04;;;;;;;;;;;;;;;21.71;29.03;97606.53;4980858;28;990;-78
2022/08/06 00:31:29;;;;;;;;;;;;;;;21.45;29.48;97599.28;5013518;28;1991;-78
2022/08/06 00:33:55;;;;;;;;;;;;;;;21.78;28.88;97597.78;4997125;28;2978;-78
2022/08/06 00:36:21;;;;;;;;;;;;;;;21.50;29.31;97595.88;5013394;28;934;-78
2022/08/06 00:38:47;;;;;;;;;;;;;;;21.61;28.98;97596.34;4974358;28;1221;-78
2022/08/06 00:41:14;;;;;;;;;;;;;;;21.76;29.08;97591.78;4974897;28;934;-78
2022/08/06 00:43:40;;;;;;;;;;;;;;;21.60;29.31;97594.72;4955128;28;909;-78
2022/08/06 00:46:06;;;;;;;;;;;;;;;21.48;29.38;97598.38;4955044;28;985;-78
2022/08/06 00:48:31;;;;;;;;;;;;;;;21.62;29.15;97597.13;4924732;29;1164;-78
2022/08/06 00:50:57;;;;;;;;;;;;;;;21.73;28.85;97598.34;4964699;28;1989;-78
2022/08/06 00:53:22;;;;;;;;;;;;;;;21.79;28.93;97590.06;4958031;28;1048;-78
2022/08/06 00:55:48;;;;;;;;;;;;;;;21.76;29.04;97591.78;4974537;28;918;-78
2022/08/06 00:58:13;;;;;;;;;;;;;;;21.67;29.02;97599.38;4958178;28;1029;-78
2022/08/06 01:00:39;;;;;;;;;;;;;;;21.68;28.79;97601.75;4974610;28;891;-78
2022/08/06 01:03:04;;;;;;;;;;;;;;;21.58;29.21;97594.41;4974455;28;1055;-77
2022/08/06 01:05:30;;;;;;;;;;;;;;;21.52;29.11;97599.06;4974405;28;920;-78
2022/08/06 01:07:55;;;;;;;;;;;;;;;21.57;29.02;97595.66;4974385;28;996;-78
2022/08/06 01:10:22;;;;;;;;;;;;;;;21.69;28.81;97597.66;5002901;28;1977;-78
2022/08/06 01:12:47;;;;;;;;;;;;;;;21.69;28.89;97592.00;5013497;28;1209;-78
2022/08/06 01:15:12;;;;;;;;;;;;;;;21.90;28.72;97584.81;5044221;28;933;-78
2022/08/06 01:17:41;;;;;;;;;;;;;;;21.63;29.05;97593.84;5059036;28;1009;-78
2022/08/06 01:20:19;;;;;;;;;;;;;;;21.71;29.04;97589.53;5058999;28;913;-78
2022/08/06 01:22:48;;;;;;;;;;;;;;;21.55;29.08;97587.63;5036518;28;994;-78
2022/08/06 01:25:31;;;;;;;;;;;;;;;21.75;28.89;97584.50;5036809;28;1010;-78
2022/08/06 01:28:02;;;;;;;;;;;;;;;21.49;29.15;97582.97;5036570;28;989;-78
2022/08/06 01:30:32;;;;;;;;;;;;;;;21.53;29.35;97581.63;5036760;28;1910;-78
2022/08/06 01:33:00;;;;;;;;;;;;;;;21.52;29.04;97582.06;5020297;28;942;-78
2022/08/06 01:35:27;;;;;;;;;;;;;;;21.68;29.03;97578.31;5036449;28;942;-78
2022/08/06 01:38:11;;;;;;;;;;;;;;;21.89;28.61;97579.63;5020274;28;1008;-78
2022/08/06 01:40:37;;;;;;;;;;;;;;;21.56;29.03;97582.75;5036309;28;877;-78
2022/08/06 01:43:03;;;;;;;;;;;;;;;21.66;29.12;97587.28;5020280;28;1041;-78
2022/08/06 01:45:29;;;;;;;;;;;;;;;21.84;28.72;97587.44;5020114;28;926;-78
2022/08/06 01:47:56;;;;;;;;;;;;;;;21.85;28.89;97576.91;5019805;28;1203;-77
2022/08/06 01:50:28;;;;;;;;;;;;;;;21.77;28.82;97582.03;5019409;28;1973;-78
2022/08/06 01:52:54;;;;;;;;;;;;;;;21.90;28.74;97581.19;5023633;28;1014;-78
2022/08/06 01:55:20;;;;;;;;;;;;;;;21.80;28.88;97578.28;5057256;28;1517;-78
2022/08/06 01:57:47;;;;;;;;;;;;;;;21.75;28.87;97573.19;5057057;28;925;-78
2022/08/06 02:00:12;;;;;;;;;;;;;;;21.76;29.22;97579.63;5057667;28;890;-78
2022/08/06 02:02:38;;;;;;;;;;;;;;;21.72;28.82;97579.78;5058104;28;941;-78
2022/08/06 02:05:03;;;;;;;;;;;;;;;21.50;29.33;97573.22;5058470;28;903;-78
2022/08/06 02:07:33;;;;;;;;;;;;;;;21.77;28.84;97578.41;5058589;28;1024;-78
2022/08/06 02:09:59;;;;;;;;;;;;;;;21.51;29.14;97580.50;5058197;28;1910;-78
2022/08/06 02:12:25;;;;;;;;;;;;;;;21.71;29.17;97569.72;5058310;28;1179;-78
2022/08/06 02:14:52;;;;;;;;;;;;;;;21.83;28.85;97568.88;5057156;28;957;-78
2022/08/06 02:17:18;;;;;;;;;;;;;;;21.75;28.82;97576.00;5057082;28;888;-76
2022/08/06 02:19:45;;;;;;;;;;;;;;;21.83;28.82;97568.09;5058007;28;848;-77
2022/08/06 02:22:11;;;;;;;;;;;;;;;21.47;29.31;97574.16;5056677;28;951;-77
2022/08/06 02:24:37;;;;;;;;;;;;;;;21.84;28.73;97570.44;5057963;28;1027;-78
2022/08/06 02:27:02;;;;;;;;;;;;;;;21.55;29.50;97575.47;5056427;28;981;-77
2022/08/06 02:29:28;;;;;;;;;;;;;;;21.61;29.25;97573.69;5057258;28;928;-77
2022/08/06 02:31:54;;;;;;;;;;;;;;;21.75;29.02;97572.41;5056561;28;1917;-77
2022/08/06 02:34:20;;;;;;;;;;;;;;;21.82;28.90;97572.19;5057850;28;905;-77
2022/08/06 02:36:47;;;;;;;;;;;;;;;21.66;29.29;97570.28;5022553;28;1120;-77
2022/08/06 02:39:25;;;;;;;;;;;;;;;21.59;29.39;97576.16;5035213;28;1025;-77
2022/08/06 02:42:03;;;;;;;;;;;;;;;21.75;29.10;97570.34;5035239;28;952;-77
2022/08/06 02:44:35;;;;;;;;;;;;;;;21.67;29.40;97574.69;5019167;28;1013;-77
2022/08/06 02:47:05;;;;;;;;;;;;;;;21.81;28.89;97571.38;5035298;28;1088;-77
2022/08/06 02:49:31;;;;;;;;;;;;;;;21.64;29.23;97578.44;5018578;28;993;-77
2022/08/06 02:52:04;;;;;;;;;;;;;;;21.56;29.76;97582.75;5018831;28;1910;-77
2022/08/06 02:54:29;;;;;;;;;;;;;;;21.69;29.12;97580.69;5032460;28;1016;-77
2022/08/06 02:56:58;;;;;;;;;;;;;;;21.65;29.51;97588.50;5034903;28;942;-77
2022/08/06 02:59:24;;;;;;;;;;;;;;;21.69;29.19;97579.88;5014806;28;1011;-77
2022/08/06 03:01:54;;;;;;;;;;;;;;;21.68;29.22;97596.09;4999134;28;1098;-77
2022/08/06 03:04:21;;;;;;;;;;;;;;;21.56;29.48;97594.06;4995175;28;979;-77
2022/08/06 03:06:46;;;;;;;;;;;;;;;21.69;29.30;97591.22;4956787;29;1136;-77
2022/08/06 03:09:12;;;;;;;;;;;;;;;21.70;29.42;97587.13;4940656;29;1002;-77
2022/08/06 03:11:37;;;;;;;;;;;;;;;21.78;29.11;97594.94;4899335;29;1911;-77
2022/08/06 03:14:03;;;;;;;;;;;;;;;21.62;29.51;97592.25;4884218;29;944;-77
2022/08/06 03:16:33;;;;;;;;;;;;;;;21.95;28.77;97592.75;4880500;29;973;-77
2022/08/06 03:18:59;;;;;;;;;;;;;;;21.77;29.06;97592.56;4865172;29;953;-77
2022/08/06 03:21:24;;;;;;;;;;;;;;;21.83;29.18;97596.41;4880470;29;984;-78
2022/08/06 03:23:50;;;;;;;;;;;;;;;21.64;29.18;97595.41;4861754;29;1003;-77
2022/08/06 03:26:15;;;;;;;;;;;;;;;21.92;29.04;97598.56;4862056;29;1061;-77
2022/08/06 03:28:41;;;;;;;;;;;;;;;21.76;29.28;97597.44;4843326;29;1006;-77
2022/08/06 03:31:06;;;;;;;;;;;;;;;21.63;29.30;97596.66;4825408;29;1911;-77
2022/08/06 03:33:31;;;;;;;;;;;;;;;21.69;29.30;97597.66;4825062;29;943;-77
2022/08/06 03:35:58;;;;;;;;;;;;;;;21.59;29.50;97598.81;4828537;29;1259;-77
2022/08/06 03:38:23;;;;;;;;;;;;;;;21.77;29.21;97587.69;4889523;29;1074;-77
2022/08/06 03:40:49;;;;;;;;;;;;;;;21.57;29.59;97598.50;4883618;29;994;-78
2022/08/06 03:43:14;;;;;;;;;;;;;;;21.66;29.60;97592.94;4904762;29;2085;-77
2022/08/06 03:45:42;;;;;;;;;;;;;;;21.61;29.41;97593.50;4910671;29;1780;-77
2022/08/06 03:48:08;;;;;;;;;;;;;;;21.52;29.96;97596.22;4898514;29;1203;-77
2022/08/06 03:50:34;;;;;;;;;;;;;;;21.74;29.35;97582.94;4898532;29;1978;-77
2022/08/06 03:53:01;;;;;;;;;;;;;;;21.84;29.26;97593.09;4898490;29;979;-77
2022/08/06 03:55:27;;;;;;;;;;;;;;;21.66;29.54;97592.94;4882852;29;986;-77
2022/08/06 03:57:53;;;;;;;;;;;;;;;21.60;29.78;97594.72;4898498;29;939;-77
2022/08/06 04:00:19;;;;;;;;;;;;;;;21.97;28.96;97595.94;4917941;29;1615;-77
2022/08/06 04:02:45;;;;;;;;;;;;;;;21.81;29.36;97594.03;4936528;29;1040;-77
2022/08/06 04:05:12;;;;;;;;;;;;;;;21.84;29.31;97601.59;4920674;29;1031;-77
2022/08/06 04:07:37;;;;;;;;;;;;;;;21.98;29.32;97596.72;4918770;29;934;-77
2022/08/06 04:10:03;;;;;;;;;;;;;;;21.74;29.67;97593.47;4931934;29;1898;-77
2022/08/06 04:12:28;;;;;;;;;;;;;;;21.58;29.77;97602.91;4936333;29;1217;-77
2022/08/06 04:14:54;;;;;;;;;;;;;;;21.76;29.76;97597.44;4955173;28;1405;-77
2022/08/06 04:17:19;;;;;;;;;;;;;;;21.71;29.48;97589.53;4955320;28;976;-77
2022/08/06 04:19:45;;;;;;;;;;;;;;;21.71;29.71;97600.03;4955081;29;983;-77
2022/08/06 04:22:10;;;;;;;;;;;;;;;22.05;29.05;97597.25;4948491;29;1653;-77
2022/08/06 04:24:36;;;;;;;;;;;;;;;21.80;29.41;97598.09;4967631;28;1839;-78
2022/08/06 04:27:02;;;;;;;;;;;;;;;21.52;29.72;97599.06;4939503;29;1042;-77
2022/08/06 04:29:28;;;;;;;;;;;;;;;22.01;28.88;97601.44;4955150;28;980;-77
2022/08/06 04:31:53;;;;;;;;;;;;;;;21.57;29.97;97601.31;4955033;29;1989;-77
2022/08/06 04:34:22;;;;;;;;;;;;;;;21.71;29.62;97588.72;4972987;28;1395;-77
2022/08/06 04:36:47;;;;;;;;;;;;;;;21.69;29.80;97600.50;4958343;28;1354;-77
2022/08/06 04:39:13;;;;;;;;;;;;;;;21.58;29.99;97594.41;4974532;28;940;-77
2022/08/06 04:41:38;;;;;;;;;;;;;;;21.62;29.86;97600.75;4974485;28;952;-78
2022/08/06 04:44:03;;;;;;;;;;;;;;;21.56;30.28;97611.06;4958308;28;948;-77
2022/08/06 04:46:29;;;;;;;;;;;;;;;21.74;30.05;97605.59;4958160;28;1317;-77
2022/08/06 04:48:54;;;;;;;;;;;;;;;21.74;30.22;97605.59;4974909;28;1375;-77
2022/08/06 04:51:21;;;;;;;;;;;;;;;21.84;30.01;97604.44;5002507;28;1993;-77
2022/08/06 04:53:47;;;;;;;;;;;;;;;21.98;29.69;97608.03;4978012;28;1004;-77
2022/08/06 04:56:12;;;;;;;;;;;;;;;21.98;29.42;97613.72;4978302;28;1024;-77
2022/08/06 04:58:38;;;;;;;;;;;;;;;22.02;29.49;97605.84;4978402;28;957;-77
2022/08/06 05:01:03;;;;;;;;;;;;;;;21.88;29.98;97609.22;4992667;28;974;-77
2022/08/06 05:03:29;;;;;;;;;;;;;;;21.91;29.95;97611.91;4978798;28;952;-77
2022/08/06 05:05:56;;;;;;;;;;;;;;;22.08;29.53;97613.34;4977303;28;1441;-77
2022/08/06 05:08:22;;;;;;;;;;;;;;;21.85;30.16;97616.56;4992524;28;1180;-77
2022/08/06 05:10:49;;;;;;;;;;;;;;;21.73;30.41;97618.16;4981400;28;1910;-77
2022/08/06 05:13:15;;;;;;;;;;;;;;;22.12;29.85;97618.91;4997764;28;977;-77
2022/08/06 05:15:42;;;;;;;;;;;;;;;22.09;29.63;97603.59;4977500;28;934;-77
2022/08/06 05:18:12;;;;;;;;;;;;;;;21.79;30.12;97602.19;4994921;28;1435;-77
2022/08/06 05:20:39;;;;;;;;;;;;;;;21.74;30.20;97605.59;4958037;29;896;-78
2022/08/06 05:23:09;;;;;;;;;;;;;;;22.03;30.05;97604.63;4958504;29;940;-77
2022/08/06 05:25:35;;;;;;;;;;;;;;;21.88;29.97;97614.88;4935792;29;1041;-77
2022/08/06 05:28:00;;;;;;;;;;;;;;;21.91;30.10;97605.44;4900935;29;1208;-77
2022/08/06 05:30:26;;;;;;;;;;;;;;;22.12;29.69;97618.91;4901490;29;1903;-77
2022/08/06 05:32:51;;;;;;;;;;;;;;;21.91;30.34;97614.72;4892856;29;1425;-78
2022/08/06 05:35:17;;;;;;;;;;;;;;;21.97;30.25;97612.94;4882299;29;1142;-77
2022/08/06 05:37:42;;;;;;;;;;;;;;;21.94;30.23;97605.31;4882486;29;1055;-78
2022/08/06 05:40:08;;;;;;;;;;;;;;;22.02;30.27;97608.69;4885597;29;1166;-77
2022/08/06 05:42:33;;;;;;;;;;;;;;;21.64;30.83;97611.59;4901243;29;1065;-77
2022/08/06 05:44:59;;;;;;;;;;;;;;;21.89;30.42;97616.44;4901252;29;984;-77
2022/08/06 05:47:24;;;;;;;;;;;;;;;22.02;30.25;97608.69;4938059;29;1483;-77
2022/08/06 05:49:55;;;;;;;;;;;;;;;22.07;30.17;97619.44;4957787;28;1182;-77
2022/08/06 05:52:20;;;;;;;;;;;;;;;21.97;30.70;97623.47;4949925;29;1981;-77
2022/08/06 05:55:04;;;;;;;;;;;;;;;22.13;30.06;97629.00;4957989;29;1022;-77
2022/08/06 05:57:37;;;;;;;;;;;;;;;21.85;30.48;97627.88;4992143;28;957;-77
2022/08/06 06:00:09;;;;;;;;;;;;;;;22.28;29.94;97620.81;4996361;28;1148;-77
2022/08/06 06:02:34;;;;;;;;;;;;;;;22.06;30.45;97615.03;4970312;28;1465;-77
2022/08/06 06:05:00;;;;;;;;;;;;;;;21.82;30.59;97628.81;4973565;28;926;-77
2022/08/06 06:07:25;;;;;;;;;;;;;;;21.83;30.81;97622.69;4996246;28;963;-77
2022/08/06 06:09:51;;;;;;;;;;;;;;;21.98;30.58;97608.84;4996792;28;1048;-77
2022/08/06 06:12:16;;;;;;;;;;;;;;;21.97;30.56;97617.81;4996136;28;1906;-77
2022/08/06 06:14:42;;;;;;;;;;;;;;;21.95;30.67;97617.44;4996146;28;977;-77
2022/08/06 06:17:20;;;;;;;;;;;;;;;21.94;30.81;97607.38;4995863;28;1434;-77
2022/08/06 06:19:46;;;;;;;;;;;;;;;21.88;30.83;97614.88;4976744;28;944;-77
2022/08/06 06:22:11;;;;;;;;;;;;;;;21.93;30.74;97611.47;4977945;28;956;-77
2022/08/06 06:24:40;;;;;;;;;;;;;;;22.12;30.55;97616.06;5015817;28;887;-78
2022/08/06 06:27:08;;;;;;;;;;;;;;;22.07;30.65;97605.28;4999291;28;1097;-77
2022/08/06 06:29:39;;;;;;;;;;;;;;;21.96;30.66;97602.03;5015937;28;992;-78
2022/08/06 06:32:14;;;;;;;;;;;;;;;22.15;30.48;97611.53;4998524;28;1906;-77
2022/08/06 06:34:46;;;;;;;;;;;;;;;22.03;30.44;97605.41;4976487;28;1210;-77
2022/08/06 06:37:19;;;;;;;;;;;;;;;21.98;30.48;97608.03;4976646;28;972;-77
2022/08/06 06:40:04;;;;;;;;;;;;;;;22.16;30.15;97608.22;4956767;28;1003;-78
2022/08/06 06:42:31;;;;;;;;;;;;;;;21.82;31.14;97601.28;4957092;29;1020;-77
2022/08/06 06:45:06;;;;;;;;;;;;;;;22.02;30.67;97594.53;4956881;29;954;-77
2022/08/06 06:47:31;;;;;;;;;;;;;;;22.30;30.12;97604.91;4955659;28;1328;-78
2022/08/06 06:50:01;;;;;;;;;;;;;;;22.01;30.48;97595.78;4963343;28;989;-77
2022/08/06 06:52:31;;;;;;;;;;;;;;;22.00;30.59;97599.88;4979769;28;1918;-77
2022/08/06 06:55:01;;;;;;;;;;;;;;;22.11;30.60;97611.66;4995444;28;899;-77
2022/08/06 06:57:30;;;;;;;;;;;;;;;21.89;31.00;97605.91;4979397;28;962;-77
2022/08/06 06:59:55;;;;;;;;;;;;;;;21.93;30.85;97605.78;4979331;28;1222;-78
2022/08/06 07:02:24;;;;;;;;;;;;;;;21.89;30.71;97611.56;4994629;28;1441;-77
2022/08/06 07:04:49;;;;;;;;;;;;;;;21.94;30.74;97601.72;4998175;28;993;-77
2022/08/06 07:07:15;;;;;;;;;;;;;;;22.11;30.76;97611.66;4995266;28;1011;-77
2022/08/06 07:09:40;;;;;;;;;;;;;;;22.21;30.37;97616.16;4974723;28;1014;-77
2022/08/06 07:12:08;;;;;;;;;;;;;;;22.26;30.04;97604.22;4952943;28;1918;-77
2022/08/06 07:14:34;;;;;;;;;;;;;;;21.94;30.73;97607.38;4974477;28;941;-77
2022/08/06 07:17:00;;;;;;;;;;;;;;;22.19;30.37;97612.22;4956448;28;1074;-77
2022/08/06 07:19:25;;;;;;;;;;;;;;;22.02;30.85;97614.34;4955309;29;1302;-77
2022/08/06 07:21:51;;;;;;;;;;;;;;;22.10;30.57;97610.88;4956496;28;994;-77
2022/08/06 07:24:17;;;;;;;;;;;;;;;22.07;30.95;97608.94;4956579;28;990;-77
2022/08/06 07:26:43;;;;;;;;;;;;;;;21.96;31.11;97605.66;4956526;28;1009;-77
2022/08/06 07:29:10;;;;;;;;;;;;;;;21.95;31.10;97608.94;4937047;29;1076;-78
2022/08/06 07:31:35;;;;;;;;;;;;;;;21.85;31.46;97605.22;4936655;29;1907;-77
2022/08/06 07:34:01;;;;;;;;;;;;;;;22.22;30.90;97611.28;4898020;29;1527;-77
2022/08/06 07:36:27;;;;;;;;;;;;;;;21.97;31.10;97606.47;4880134;29;1359;-77
2022/08/06 07:38:53;;;;;;;;;;;;;;;21.84;31.17;97603.66;4875634;29;1213;-78
2022/08/06 07:41:19;;;;;;;;;;;;;;;22.17;30.55;97609.81;4861581;29;1340;-77
2022/08/06 07:43:54;;;;;;;;;;;;;;;22.03;30.79;97615.97;4863833;29;1396;-77
2022/08/06 07:46:20;;;;;;;;;;;;;;;22.35;30.44;97604.31;4845795;29;1093;-77
2022/08/06 07:48:55;;;;;;;;;;;;;;;22.26;30.56;97604.22;4860679;29;1162;-78
2022/08/06 07:51:23;;;;;;;;;;;;;;;22.11;30.98;97600.31;4880283;29;1907;-77
2022/08/06 07:53:48;;;;;;;;;;;;;;;21.87;31.28;97596.28;4879719;29;1026;-77
2022/08/06 07:56:14;;;;;;;;;;;;;;;22.18;30.65;97613.47;4860938;29;973;-77
2022/08/06 07:58:39;;;;;;;;;;;;;;;21.90;31.11;97601.81;4841733;29;1324;-76
2022/08/06 08:01:05;;;;;;;;;;;;;;;22.16;30.82;97608.22;4874556;29;1452;-77
2022/08/06 08:06:17;;;;;;;;;;;;;;;22.12;30.84;97613.22;4860744;29;1187;-77
2022/08/06 08:08:43;;;;;;;;;;;;;;;22.35;30.54;97612.03;4842623;29;990;-77
2022/08/06 08:11:08;;;;;;;;;;;;;;;21.88;30.99;97615.66;4827069;29;1904;-77
2022/08/06 08:13:34;;;;;;;;;;;;;;;22.07;30.92;97610.94;4806718;29;959;-78
2022/08/06 08:15:59;;;;;;;;;;;;;;;22.26;30.52;97611.94;4805876;29;1419;-77
2022/08/06 08:18:29;;;;;;;;;;;;;;;22.25;30.64;97616.81;4823832;29;945;-77
2022/08/06 08:20:54;;;;;;;;;;;;;;;22.10;31.03;97610.88;4837848;29;942;-78
2022/08/06 08:23:20;;;;;;;;;;;;;;;22.11;31.04;97600.31;4877493;29;1365;-78
2022/08/06 08:25:45;;;;;;;;;;;;;;;22.32;30.79;97613.72;4911943;29;1039;-77
2022/08/06 08:28:11;;;;;;;;;;;;;;;22.23;30.71;97610.03;4917290;29;954;-77
2022/08/06 08:30:39;;;;;;;;;;;;;;;22.36;30.50;97617.22;4951321;29;1903;-77
2022/08/06 08:33:04;;;;;;;;;;;;;;;22.34;30.73;97602.75;4954938;29;2058;-77
2022/08/06 08:35:29;;;;;;;;;;;;;;;22.05;30.86;97602.13;4955350;29;1061;-78
2022/08/06 08:37:55;;;;;;;;;;;;;;;22.24;30.79;97620.91;4938178;29;1084;-77
2022/08/06 08:40:21;;;;;;;;;;;;;;;22.16;31.03;97619.56;4935362;29;1499;-78
2022/08/06 08:42:46;;;;;;;;;;;;;;;22.30;30.33;97618.28;4955061;29;1074;-77
2022/08/06 08:45:12;;;;;;;;;;;;;;;22.24;30.65;97618.09;4959093;28;936;-77
2022/08/06 08:47:39;;;;;;;;;;;;;;;22.27;30.61;97625.66;4997093;28;1133;-77
2022/08/06 08:50:04;;;;;;;;;;;;;;;22.36;30.59;97617.22;5013505;28;943;-77
2022/08/06 08:52:33;;;;;;;;;;;;;;;22.17;30.76;97609.81;4974789;28;2001;-77
2022/08/06 08:55:00;;;;;;;;;;;;;;;21.96;31.13;97621.84;4973649;28;1494;-77
2022/08/06 08:57:27;;;;;;;;;;;;;;;22.41;30.24;97624.34;4974089;28;1005;-77
2022/08/06 08:59:53;;;;;;;;;;;;;;;22.26;30.36;97615.56;4955083;28;989;-78
2022/08/06 09:02:19;;;;;;;;;;;;;;;22.45;30.04;97618.56;4939010;29;1147;-77
2022/08/06 09:04:44;;;;;;;;;;;;;;;22.18;30.83;97622.75;4935901;29;1138;-77
2022/08/06 09:07:10;;;;;;;;;;;;;;;22.13;30.88;97605.53;4935879;29;1008;-77
2022/08/06 09:09:37;;;;;;;;;;;;;;;22.05;30.94;97607.78;4924706;29;1425;-77
2022/08/06 09:12:03;;;;;;;;;;;;;;;22.05;30.77;97607.78;4935775;29;1907;-77
2022/08/06 09:14:28;;;;;;;;;;;;;;;22.29;30.61;97617.50;4920757;29;975;-77
2022/08/06 09:16:54;;;;;;;;;;;;;;;22.24;30.43;97615.25;4917229;29;992;-77
2022/08/06 09:19:19;;;;;;;;;;;;;;;22.39;30.26;97614.75;4935410;29;967;-77
2022/08/06 09:21:45;;;;;;;;;;;;;;;22.20;30.40;97603.25;4936009;29;995;-77
2022/08/06 09:24:10;;;;;;;;;;;;;;;22.25;30.43;97596.19;4946115;29;1338;-77
2022/08/06 09:26:35;;;;;;;;;;;;;;;22.23;30.25;97602.34;4950214;29;1002;-77
2022/08/06 09:29:01;;;;;;;;;;;;;;;22.12;30.63;97596.22;4954827;29;1007;-77
2022/08/06 09:31:26;;;;;;;;;;;;;;;22.14;30.77;97599.41;4980638;28;2009;-77
2022/08/06 09:33:59;;;;;;;;;;;;;;;22.12;30.68;97586.94;4993543;28;985;-77
2022/08/06 09:36:24;;;;;;;;;;;;;;;22.34;30.22;97594.22;5027241;28;1288;-77
2022/08/06 09:38:51;;;;;;;;;;;;;;;22.22;30.36;97588.59;5056245;28;991;-77
2022/08/06 09:41:17;;;;;;;;;;;;;;;21.91;31.04;97592.06;5050673;28;1602;-77
2022/08/06 09:43:43;;;;;;;;;;;;;;;22.16;30.75;97596.91;5036213;28;931;-77
2022/08/06 09:46:09;;;;;;;;;;;;;;;22.30;30.26;97607.75;5036300;28;958;-77
2022/08/06 09:48:35;;;;;;;;;;;;;;;22.27;30.47;97607.84;5019504;28;1061;-77
2022/08/06 09:51:00;;;;;;;;;;;;;;;22.24;30.23;97620.91;5016053;28;1910;-77
2022/08/06 09:53:26;;;;;;;;;;;;;;;22.27;30.38;97622.03;5047378;28;944;-77
2022/08/06 09:55:52;;;;;;;;;;;;;;;22.30;30.30;97630.41;5055738;28;1356;-77
2022/08/06 09:58:26;;;;;;;;;;;;;;;22.09;30.82;97631.91;5015931;28;969;-78
2022/08/06 10:00:51;;;;;;;;;;;;;;;22.17;30.38;97626.81;5016463;28;904;-77
2022/08/06 10:03:17;;;;;;;;;;;;;;;22.21;30.50;97627.50;5016424;28;924;-77
2022/08/06 10:05:43;;;;;;;;;;;;;;;22.34;30.19;97633.91;4999460;28;1024;-77
2022/08/06 10:08:09;;;;;;;;;;;;;;;22.30;30.20;97632.47;5016251;28;1067;-77
2022/08/06 10:10:38;;;;;;;;;;;;;;;22.17;30.34;97631.69;5014108;28;1946;-77
2022/08/06 10:13:13;;;;;;;;;;;;;;;22.32;30.11;97639.25;5015997;28;1146;-77
2022/08/06 10:15:38;;;;;;;;;;;;;;;22.23;30.12;97630.69;5015075;28;1882;-76
2022/08/06 10:18:04;;;;;;;;;;;;;;;22.20;30.39;97636.47;5015828;28;987;-77
2022/08/06 10:20:30;;;;;;;;;;;;;;;22.19;30.31;97632.84;4996269;28;956;-77
2022/08/06 10:22:57;;;;;;;;;;;;;;;22.34;29.95;97625.41;4976477;28;988;-77
2022/08/06 10:25:22;;;;;;;;;;;;;;;22.10;30.38;97627.03;4976115;28;1496;-77
2022/08/06 10:27:48;;;;;;;;;;;;;;;22.07;30.44;97623.09;4976364;28;1361;-77
2022/08/06 10:30:13;;;;;;;;;;;;;;;22.26;30.21;97635.41;4954984;29;922;-77
2022/08/06 10:32:53;;;;;;;;;;;;;;;22.24;30.28;97629.41;4941093;29;1977;-77
2022/08/06 10:35:20;;;;;;;;;;;;;;;22.36;30.17;97622.13;4941222;29;987;-77
2022/08/06 10:37:47;;;;;;;;;;;;;;;22.26;30.30;97618.41;4957052;29;960;-77
2022/08/06 10:40:14;;;;;;;;;;;;;;;22.23;30.15;97619.34;4956396;29;1331;-78
2022/08/06 10:42:40;;;;;;;;;;;;;;;22.24;30.39;97620.13;4935291;29;1505;-77
2022/08/06 10:45:05;;;;;;;;;;;;;;;22.33;30.02;97621.00;4937850;29;1032;-77
2022/08/06 10:47:32;;;;;;;;;;;;;;;22.10;30.35;97621.38;4937646;29;1036;-77
2022/08/06 10:49:57;;;;;;;;;;;;;;;22.31;30.11;97623.50;4936617;29;1052;-77
2022/08/06 10:52:22;;;;;;;;;;;;;;;22.31;30.08;97623.50;4921917;29;1907;-77
2022/08/06 10:54:48;;;;;;;;;;;;;;;22.22;30.42;97612.06;4951832;28;1483;-76
2022/08/06 10:57:13;;;;;;;;;;;;;;;22.38;30.04;97618.81;4937182;29;1415;-78
2022/08/06 10:59:42;;;;;;;;;;;;;;;21.96;30.56;97610.53;4937782;29;982;-77
2022/08/06 11:02:12;;;;;;;;;;;;;;;22.11;30.68;97605.97;4937576;29;1010;-77
2022/08/06 11:04:44;;;;;;;;;;;;;;;22.18;30.45;97605.75;4937424;29;935;-77
2022/08/06 11:07:17;;;;;;;;;;;;;;;22.28;30.39;97604.59;4937749;29;1003;-77
2022/08/06 11:09:42;;;;;;;;;;;;;;;22.41;30.38;97610.19;4937044;29;1079;-77
2022/08/06 11:12:07;;;;;;;;;;;;;;;22.43;30.11;97630.34;4887896;29;1975;-77
2022/08/06 11:14:34;;;;;;;;;;;;;;;22.27;30.24;97625.66;4880530;29;1008;-77
2022/08/06 11:16:59;;;;;;;;;;;;;;;22.21;30.63;97621.81;4881410;29;995;-77
2022/08/06 11:19:44;;;;;;;;;;;;;;;22.35;30.08;97621.31;4880974;29;944;-77
2022/08/06 11:22:28;;;;;;;;;;;;;;;22.33;30.14;97626.69;4899078;29;1132;-77
2022/08/06 11:24:53;;;;;;;;;;;;;;;22.10;30.78;97633.53;4899037;29;920;-77
2022/08/06 11:27:37;;;;;;;;;;;;;;;22.10;30.61;97632.72;4924965;29;1376;-77
2022/08/06 11:30:11;;;;;;;;;;;;;;;22.09;30.46;97637.59;4936908;29;1002;-77
2022/08/06 11:32:44;;;;;;;;;;;;;;;22.30;30.23;97636.09;4936958;29;1976;-77
2022/08/06 11:35:28;;;;;;;;;;;;;;;22.23;30.53;97625.00;4949645;29;1429;-77
2022/08/06 11:37:53;;;;;;;;;;;;;;;22.45;30.02;97638.41;4956209;29;1003;-77
2022/08/06 11:40:19;;;;;;;;;;;;;;;22.31;30.28;97642.53;4969334;28;1018;-77
2022/08/06 11:42:45;;;;;;;;;;;;;;;22.55;30.09;97634.41;5014396;28;937;-77
2022/08/06 11:45:11;;;;;;;;;;;;;;;22.27;30.42;97630.53;5054044;28;934;-77
2022/08/06 11:47:39;;;;;;;;;;;;;;;22.22;30.12;97633.94;5054221;28;1198;-77
2022/08/06 11:50:14;;;;;;;;;;;;;;;22.17;30.51;97623.97;5030401;28;1383;-77
2022/08/06 11:52:40;;;;;;;;;;;;;;;22.12;30.55;97630.22;5033819;28;1905;-78
2022/08/06 11:55:06;;;;;;;;;;;;;;;22.02;30.71;97622.84;4994075;28;956;-77
2022/08/06 11:57:32;;;;;;;;;;;;;;;22.34;30.14;97628.25;4982032;28;930;-78
2022/08/06 11:59:57;;;;;;;;;;;;;;;22.33;30.08;97629.50;5013912;28;930;-77
2022/08/06 12:02:41;;;;;;;;;;;;;;;21.79;30.83;97624.84;5014003;28;953;-77
2022/08/06 12:05:07;;;;;;;;;;;;;;;22.21;30.34;97618.97;5013323;28;1318;-77
2022/08/06 12:07:34;;;;;;;;;;;;;;;22.14;30.55;97609.97;5014066;28;943;-77
2022/08/06 12:10:07;;;;;;;;;;;;;;;22.14;30.52;97613.56;4993922;28;1022;-77
2022/08/06 12:12:48;;;;;;;;;;;;;;;22.21;30.34;97607.66;4994687;28;1989;-77
2022/08/06 12:15:19;;;;;;;;;;;;;;;22.36;30.31;97611.56;4993878;28;953;-77
2022/08/06 12:17:53;;;;;;;;;;;;;;;22.10;30.38;97602.38;4994460;28;1153;-77
2022/08/06 12:20:44;;;;;;;;;;;;;;;22.07;30.55;97603.25;4996959;28;1517;-77
2022/08/06 12:23:11;;;;;;;;;;;;;;;22.26;30.15;97604.22;4974450;28;1025;-77
2022/08/06 12:25:41;;;;;;;;;;;;;;;22.31;30.09;97597.97;4949023;28;1374;-77
2022/08/06 12:28:07;;;;;;;;;;;;;;;22.42;30.08;97608.13;4916787;29;1056;-77
2022/08/06 12:30:41;;;;;;;;;;;;;;;22.31;30.39;97606.47;4901239;29;1983;-77
2022/08/06 12:33:08;;;;;;;;;;;;;;;22.05;30.70;97602.91;4917485;29;1011;-77
2022/08/06 12:35:33;;;;;;;;;;;;;;;22.17;30.31;97601.31;4900954;29;1544;-77
2022/08/06 12:37:59;;;;;;;;;;;;;;;22.22;30.19;97600.72;4897001;29;1341;-77
2022/08/06 12:40:27;;;;;;;;;;;;;;;22.06;30.48;97598.81;4896999;29;1462;-77
2022/08/06 12:42:53;;;;;;;;;;;;;;;22.13;30.25;97589.34;4898024;29;1424;-77
2022/08/06 12:45:20;;;;;;;;;;;;;;;22.26;30.31;97595.72;4879478;29;950;-77
2022/08/06 12:47:55;;;;;;;;;;;;;;;22.18;30.14;97605.75;4907254;29;1068;-77
2022/08/06 12:50:21;;;;;;;;;;;;;;;22.05;30.53;97593.63;4897982;29;1006;-77
2022/08/06 12:53:05;;;;;;;;;;;;;;;22.27;30.23;97596.53;4898071;29;1017;-77
2022/08/06 12:55:30;;;;;;;;;;;;;;;22.24;30.58;97598.25;4896083;29;1496;-78
2022/08/06 12:57:56;;;;;;;;;;;;;;;22.33;30.24;97600.38;4863526;29;1462;-77
2022/08/06 13:00:22;;;;;;;;;;;;;;;22.41;29.90;97598.06;4904536;29;939;-77
2022/08/06 13:02:47;;;;;;;;;;;;;;;22.47;30.00;97599.03;4893473;29;983;-78
2022/08/06 13:05:13;;;;;;;;;;;;;;;22.29;30.06;97577.81;4930450;29;919;-77